Spot Road, Arizona (BMGR) Weather observations

Data are for 10 minute period ending at time listed.
 Day   Time   Solar   Ave.   Ave.  Ave.  Vector  Max.   Total    
  of    of     Rad.   Air    Rel.  Wind   Wind   Wind  Precip.   
Year   Day            Temp.  Hum.  Speed  Dir.   Gust            
2026   (MST)  Kw/m2    F      %     mph   deg.    mph    in.     
-----------------------------------------------------------------
 126    1:35   0.00   60.9    40    8.8   209    11.6    0.00 
 126    1:40   0.00   60.7    40    8.7   207     9.9    0.00 
 126    1:45   0.00   60.6    41    8.1   209    10.5    0.00 
 126    1:50   0.00   60.4    41    7.3   208     9.9    0.00 
 126    1:55   0.00   60.4    41    7.8   203     9.9    0.00 
 126    2:00   0.00   60.2    41    8.3   202     9.9    0.00 
 126    2:05   0.00   60.0    41    8.9   200    10.5    0.00 
 126    2:10   0.00   59.9    42    9.0   202    10.5    0.00 
 126    2:15   0.00   59.8    42    8.9   204    11.0    0.00 
 126    2:20   0.00   59.8    42   10.5   201    12.1    0.00 
 126    2:25   0.00   59.8    42   11.3   201    13.8    0.00 
 126    2:30   0.00   59.9    42   11.1   203    13.3    0.00 
 126    2:35   0.00   60.0    42   10.9   203    13.8    0.00 
 126    2:40   0.00   60.0    41   10.8   203    12.1    0.00 
 126    2:45   0.00   60.0    42   10.4   201    12.1    0.00 
 126    2:50   0.00   60.0    42    9.6   200    11.6    0.00 
 126    2:55   0.00   60.0    41    8.8   207    11.0    0.00 
 126    3:00   0.00   59.8    42    8.4   209    11.6    0.00 
 126    3:05   0.00   59.8    42    7.9   204     9.9    0.00 
 126    3:10   0.00   59.7    42    8.1   204     9.9    0.00 
 126    3:15   0.00   59.8    42    7.1   206     8.8    0.00 
 126    3:20   0.00   59.9    42    7.3   210     8.8    0.00 
 126    3:25   0.00   59.8    42    7.1   207     9.9    0.00 
 126    3:30   0.00   59.7    42    7.4   204     8.8    0.00 
 126    3:35   0.00   59.8    42    7.6   205     8.8    0.00 
 126    3:40   0.00   59.9    41    7.5   205     8.8    0.00 
 126    3:45   0.00   59.9    41    8.6   204     9.9    0.00 
 126    3:50   0.00   59.6    42    8.9   205     9.9    0.00 
 126    3:55   0.00   59.3    42    9.3   205    10.5    0.00 
 126    4:00   0.00   59.1    42   10.0   204    11.6    0.00 
 126    4:05   0.00   59.1    42   10.3   205    12.1    0.00 
 126    4:10   0.00   58.9    43    9.6   210    11.0    0.00 
 126    4:15   0.00   58.7    43    9.0   211    10.5    0.00 
 126    4:20   0.00   58.7    43    8.3   207     9.9    0.00 
 126    4:25   0.00   58.6    43    8.5   203     9.3    0.00 
 126    4:30   0.00   58.7    43    9.1   204     9.9    0.00 
 126    4:35   0.00   58.5    43    8.9   208    10.5    0.00 
 126    4:40   0.00   58.7    43    9.7   213    11.0    0.00 
 126    4:45   0.00   58.3    44   10.1   212    11.6    0.00 
 126    4:50   0.00   57.9    44   10.1   213    11.0    0.00 
 126    4:55   0.00   57.9    44    9.7   211    11.6    0.00 
 126    5:00   0.00   58.0    44    8.4   208     9.9    0.00 
 126    5:05   0.00   58.7    43    8.8   205     9.9    0.00 
 126    5:10   0.00   59.5    42    8.4   201     9.3    0.00 
 126    5:15   0.00   58.1    43    5.3   187     7.7    0.00 
 126    5:20   0.00   57.7    44    3.1   151     4.9    0.00 
 126    5:25   0.00   57.7    44    2.3    93     3.2    0.00 
 126    5:30   0.00   58.2    43    2.8    92     4.3    0.00 
 126    5:35   0.00   58.5    43    3.0    60     4.9    0.00 
 126    5:40   0.00   56.8    45    4.4    32     5.4    0.00 
 126    5:45   0.01   56.6    45    3.9    30     4.9    0.00 
 126    5:50   0.01   57.1    44    1.4    49     3.2    0.00 
 126    5:55   0.02   59.0    42    0.0     0     0.0    0.00 
 126    6:00   0.03   59.5    41    1.1    83     5.4    0.00 
 126    6:05   0.04   57.8    42    3.8    78     4.3    0.00 
 126    6:10   0.05   57.5    42    3.5    83     4.3    0.00 
 126    6:15   0.06   57.4    42    4.0    96     4.9    0.00 
 126    6:20   0.08   57.9    42    3.6    98     4.9    0.00 
 126    6:25   0.09   58.1    41    4.1    80     6.0    0.00 
 126    6:30   0.10   57.5    42    3.1    83     4.3    0.00 
 126    6:35   0.12   60.3    40    0.9    94     2.6    0.00 
 126    6:40   0.13   61.9    38    0.0     0     0.0    0.00 
 126    6:45   0.15   61.0    37    2.4    41     3.8    0.00 
 126    6:50   0.16   59.5    39    2.0    62     3.2    0.00 
 126    6:55   0.18   59.6    39    2.8    94     4.3    0.00 
 126    7:00   0.19   59.7    39    4.2    93     6.0    0.00 
 126    7:05   0.21   60.6    38    3.7    84     4.9    0.00 
 126    7:10   0.22   61.1    38    3.7    91     5.4    0.00 
 126    7:15   0.24   61.5    38    4.3    92     5.4    0.00 
 126    7:20   0.26   62.3    37    4.0    96     4.9    0.00 
 126    7:25   0.27   62.6    37    4.0    93     5.4    0.00 
 126    7:30   0.29   63.3    36    3.4    84     4.9    0.00 
 126    7:35   0.30   64.4    35    3.2    83     4.3    0.00 
 126    7:40   0.32   64.8    35    3.4    74     5.4    0.00 
 126    7:45   0.34   65.2    35    2.8    60     4.9    0.00 
 126    7:50   0.35   65.8    35    2.1    41     3.8    0.00 
 126    7:55   0.37   66.3    34    3.8   358     5.4    0.00 
 126    8:00   0.39   66.1    35    1.8   348     5.4    0.00 
 126    8:05   0.40   67.1    34    1.6   344     4.3    0.00 
 126    8:10   0.42   66.6    35    1.8   267     4.9    0.00 
 126    8:15   0.43   66.5    35    0.7   263     3.8    0.00 
 126    8:20   0.45   67.7    34    0.1   187     2.1    0.00 
 126    8:25   0.47   67.9    33    0.4   260     2.1    0.00 
 126    8:30   0.48   68.5    33    1.6    34     4.3    0.00 
 126    8:35   0.50   69.0    32    0.8    82     2.6    0.00 
 126    8:40   0.51   69.5    32    3.1     2     6.5    0.00 
 126    8:45   0.53   68.3    32    3.5   358     5.4    0.00 
 126    8:50   0.54   68.7    32    2.0    14     3.8    0.00 
 126    8:55   0.56   68.9    32    2.1   318     6.5    0.00 
 126    9:00   0.57   69.7    31    2.7   322     6.0    0.00 
 126    9:05   0.59   69.6    31    2.5   284     4.9    0.00 
 126    9:10   0.60   70.1    31    1.3   357     4.9    0.00 
 126    9:15   0.62   71.5    29    3.5     3     6.0    0.00 
 126    9:20   0.63   71.3    29    3.8    33     5.4    0.00 
 126    9:25   0.64   70.8    29    3.1    24     6.0    0.00 
 126    9:30   0.66   71.6    29    3.3   316     9.3    0.00 
 126    9:35   0.67   71.2    29    3.5   320     6.0    0.00 
 126    9:40   0.68   71.7    28    2.6   335     6.5    0.00 
 126    9:45   0.69   72.6    29    4.4   294     8.2    0.00 
 126    9:50   0.71   71.7    30    5.0   273     8.2    0.00 
 126    9:55   0.72   71.8    30    3.3   240     5.4    0.00 
 126   10:00   0.73   72.7    29    2.4   302     6.5    0.00 
 126   10:05   0.74   72.8    28    5.1   323    11.0    0.00 
 126   10:10   0.75   73.0    28    2.6   282     4.9    0.00 
 126   10:15   0.76   73.9    28    3.4   302     7.7    0.00 
 126   10:20   0.77   74.4    28    3.8   226     5.4    0.00 
 126   10:25   0.78   73.9    28    2.0   165     6.0    0.00 
 126   10:30   0.79   74.8    27    2.3   316     6.5    0.00 
 126   10:35   0.80   75.9    26    2.7   275     6.0    0.00 
 126   10:40   0.81   75.6    26    4.7   257     8.2    0.00 
 126   10:45   0.82   75.6    27    3.5   244     6.5    0.00 
 126   10:50   0.83   74.8    27    3.4   187     7.1    0.00 
 126   10:55   0.84   74.8    28    5.2   202     9.3    0.00 
 126   11:00   0.84   75.6    27    3.5   228     6.0    0.00 
 126   11:05   0.85   75.4    27    5.2   205    11.0    0.00 
 126   11:10   0.86   74.7    27    7.0   214    10.5    0.00 
 126   11:15   0.87   74.5    27    3.8   254     7.7    0.00 
 126   11:20   0.88   75.1    26    2.6   217     6.0    0.00 
 126   11:25   0.88   76.1    25    5.6   200    11.6    0.00 
 126   11:30   0.89   75.7    26    5.5   160     8.8    0.00 
 126   11:35   0.89   76.8    25    5.8   176    11.6    0.00 
 126   11:40   0.89   76.6    25    7.7   185    12.1    0.00 
 126   11:45   0.90   76.3    25    5.1   156     9.9    0.00 
 126   11:50   0.90   76.8    24    3.0   252     6.5    0.00 
 126   11:55   0.91   77.3    24    2.7    66     8.8    0.00 
 126   12:00   0.91   79.2    22    3.5    79    14.4    0.00 
 126   12:05   0.91   78.9    22    3.0   354     5.4    0.00 
 126   12:10   0.91   78.1    23    4.5   359     7.7    0.00 
 126   12:15   0.91   77.0    24    6.8   343    11.6    0.00 
 126   12:20   0.91   77.8    23    4.6   267     7.1    0.00 
 126   12:25   0.91   77.3    23    3.8   209    10.5    0.00 
 126   12:30   0.91   78.5    23    7.2   314    21.6    0.00 
 126   12:35   0.91   78.8    22    8.4   235    12.7    0.00 
 126   12:40   0.91   78.0    23    7.1   203    11.6    0.00 
 126   12:45   0.91   78.7    22    6.9   254    10.5    0.00 
 126   12:50   0.91   78.4    23    7.3   325    13.3    0.00 
 126   12:55   0.91   78.7    23    3.4   358    10.5    0.00 
 126   13:00   0.91   78.0    23    5.6   359    10.5    0.00 
 126   13:05   0.91   79.6    21    5.7   213    10.5    0.00 
 126   13:10   0.90   78.9    22    6.7   186    11.6    0.00 
 126   13:15   0.90   78.9    21    2.8    86     4.9    0.00 
 126   13:20   0.90   79.5    20    5.0   195     9.9    0.00 
 126   13:25   0.89   79.2    21    6.6   238    10.5    0.00 
 126   13:30   0.89   78.4    22    4.2   237     7.7    0.00 
 126   13:35   0.88   79.9    22    5.7   318     9.9    0.00 
 126   13:40   0.87   79.9    22    9.5   344    15.5    0.00 
 126   13:45   0.87   79.1    22    6.3   352    11.0    0.00 
 126   13:50   0.86   78.7    22    4.2   328     8.8    0.00 
 126   13:55   0.85   80.1    21    7.2   343    13.8    0.00 
 126   14:00   0.85   79.8    20    9.2   351    14.9    0.00 
 126   14:05   0.84   79.8    21   11.2   356    16.6    0.00 
 126   14:10   0.83   79.6    21    6.5   358    11.6    0.00 
 126   14:15   0.82   80.8    20    8.2   326    15.5    0.00 
 126   14:20   0.82   81.0    19   10.5   324    14.9    0.00 
 126   14:25   0.81   79.6    20   10.6   338    17.7    0.00 
 126   14:30   0.80   79.9    19   11.7     3    19.4    0.00 
 126   14:35   0.79   79.9    19   10.1    10    14.4    0.00 
 126   14:40   0.78   80.1    19    9.2     7    13.8    0.00 
 126   14:45   0.77   80.8    19    6.6   320    12.1    0.00 
 126   14:50   0.76   82.4    18    8.5   288    14.9    0.00 
 126   14:55   0.75   81.6    18    7.7   301    14.4    0.00 
 126   15:00   0.74   82.2    18    6.0   261    11.6    0.00 
 126   15:05   0.73   82.0    17    6.0   304    14.9    0.00 
 126   15:10   0.72   81.0    17    7.6   290    12.7    0.00 
 126   15:15   0.71   81.8    16    4.5   237     8.8    0.00 
 126   15:20   0.70   82.1    16   10.4   324    16.0    0.00 
 126   15:25   0.68   81.6    16   11.2   329    17.2    0.00 
 126   15:30   0.67   81.6    15   13.3   335    17.2    0.00 
 126   15:35   0.66   81.4    15    8.8   325    13.3    0.00 
 126   15:40   0.65   81.7    15    5.4   325     8.2    0.00 
 126   15:45   0.63   81.7    15    8.5   334    12.1    0.00 
 126   15:50   0.62   81.5    14    8.2     8    13.3    0.00 
 126   15:55   0.61   81.4    14   10.2   359    14.4    0.00 
 126   16:00   0.59   81.4    14   11.1    18    15.5    0.00 
 126   16:05   0.58   81.3    14    8.1    21    11.0    0.00 
 126   16:10   0.57   81.4    14    9.7    33    14.4    0.00 
 126   16:15   0.55   82.3    14    4.2    55    12.1    0.00 
 126   16:20   0.54   82.5    14    8.9    18    12.7    0.00 
 126   16:25   0.52   82.1    14    7.3   355    10.5    0.00 
 126   16:30   0.51   82.9    14    4.4   297     8.8    0.00 
 126   16:35   0.49   83.5    13    4.6   343    13.8    0.00 
 126   16:40   0.47   82.3    13    8.4   358    14.4    0.00 
 126   16:45   0.46   82.5    13    7.3   344    11.6    0.00 
 126   16:50   0.44   83.6    13    6.5   256    11.0    0.00 
 126   16:55   0.43   84.3    12    4.7   231     7.7    0.00 
 126   17:00   0.41   83.5    13    2.0   103     4.9    0.00 
 126   17:05   0.39   83.3    13    3.1   135     6.0    0.00 
 126   17:10   0.38   83.6    13    3.0   281     8.8    0.00 
 126   17:15   0.36   83.3    13    4.9   285     8.8    0.00 
 126   17:20   0.34   82.8    14    5.6   242     9.9    0.00 
 126   17:25   0.33   83.3    13    2.5   214     6.5    0.00 
 126   17:30   0.31   84.1    13    6.7   280     9.9    0.00 
 126   17:35   0.29   83.4    14    4.7   252     7.7    0.00 
 126   17:40   0.28   84.1    13    1.5   202     4.9    0.00 
 126   17:45   0.26   83.8    13    1.5   155     4.9    0.00 
 126   17:50   0.24   83.6    13    7.5   268    11.6    0.00 
 126   17:55   0.23   83.4    13    4.6   278     8.8    0.00 
 126   18:00   0.21   83.5    13    6.3   228     8.8    0.00 
 126   18:05   0.20   83.3    14    3.9   241     6.5    0.00 
 126   18:10   0.18   83.4    14    4.0   236     6.0    0.00 
 126   18:15   0.17   83.5    13    4.0   244     6.0    0.00 
 126   18:20   0.15   83.8    13    2.3   226     4.9    0.00 
 126   18:25   0.14   84.3    13    1.2   206     3.8    0.00 
 126   18:30   0.12   83.9    13    3.0   143     4.9    0.00 
 126   18:35   0.11   83.6    14    7.4   189    10.5    0.00 
 126   18:40   0.09   82.8    14    7.8   185    10.5    0.00 
 126   18:45   0.08   82.8    14    7.3   197     9.9    0.00 
 126   18:50   0.07   82.6    14    6.7   197     8.8    0.00 
 126   18:55   0.06   82.4    14    5.7   202     7.7    0.00 
 126   19:00   0.04   82.4    14    5.7   205     7.7    0.00 
 126   19:05   0.03   82.3    14    5.7   201     7.7    0.00 
 126   19:10   0.02   81.8    14    5.6   188     7.1    0.00 
 126   19:15   0.01   81.4    14    7.1   196     8.2    0.00 
 126   19:20   0.01   81.1    14    6.8   197     7.7    0.00 
 126   19:25   0.00   80.7    14    8.0   192    10.5    0.00 
 126   19:30   0.00   80.5    14    8.4   193    10.5    0.00 
 126   19:35   0.00   80.2    15    7.8   195     8.8    0.00 
 126   19:40   0.00   79.8    15    8.0   197     9.3    0.00 
 126   19:45   0.00   79.5    15    8.1   196     8.8    0.00 
 126   19:50   0.00   79.3    15    7.9   194     9.3    0.00 
 126   19:55   0.00   79.2    15    7.8   196     8.8    0.00 
 126   20:00   0.00   79.1    15    7.8   196     9.3    0.00 
 126   20:05   0.00   78.6    15    7.4   198     8.2    0.00 
 126   20:10   0.00   78.2    15    7.8   195     8.8    0.00 
 126   20:15   0.00   78.1    15    7.4   194     8.8    0.00 
 126   20:20   0.00   78.1    15    7.9   198     8.8    0.00 
 126   20:25   0.00   77.8    15    8.2   198     8.8    0.00 
 126   20:30   0.00   77.6    15    8.7   200     9.9    0.00 
 126   20:35   0.00   77.6    15    8.5   198     9.3    0.00 
 126   20:40   0.00   77.4    15    8.8   200     9.3    0.00 
 126   20:45   0.00   77.4    15    8.6   197     9.3    0.00 
 126   20:50   0.00   76.9    15    7.8   197     8.8    0.00 
 126   20:55   0.00   76.6    15    7.3   201     8.2    0.00 
 126   21:00   0.00   76.6    15    7.4   199     8.2    0.00 
 126   21:05   0.00   76.8    15    7.8   200     8.8    0.00 
 126   21:10   0.00   76.6    15    7.0   200     7.7    0.00 
 126   21:15   0.00   76.5    15    8.1   202     9.3    0.00 
 126   21:20   0.00   76.4    15    9.0   201    10.5    0.00 
 126   21:25   0.00   75.6    15    8.1   198     9.3    0.00 
 126   21:30   0.00   75.6    15    8.5   196     9.3    0.00 
 126   21:35   0.00   75.7    15    8.9   201     9.3    0.00 
 126   21:40   0.00   75.7    15    9.3   202    10.5    0.00 
 126   21:45   0.00   75.7    15    8.9   207     9.9    0.00 
 126   21:50   0.00   75.3    16   10.0   211    11.0    0.00 
 126   21:55   0.00   75.0    16   10.3   213    11.6    0.00 
 126   22:00   0.00   74.9    16    9.8   215    11.0    0.00 
 126   22:05   0.00   74.8    16    8.3   216     9.9    0.00 
 126   22:10   0.00   74.7    16    7.3   214     8.2    0.00 
 126   22:15   0.00   74.4    16    6.5   215     7.7    0.00 
 126   22:20   0.00   73.7    16    6.4   219     7.1    0.00 
 126   22:25   0.00   73.5    16    6.9   224     7.7    0.00 
 126   22:30   0.00   73.5    16    7.2   224     7.7    0.00 
 126   22:35   0.00   73.9    16    7.6   223     8.2    0.00 
 126   22:40   0.00   74.2    16    7.6   226     8.8    0.00 
 126   22:45   0.00   74.6    16    8.1   228     8.8    0.00 
 126   22:50   0.00   74.7    15    8.0   231     8.8    0.00 
 126   22:55   0.00   75.2    15    9.2   235    12.7    0.00 
 126   23:00   0.00   76.4    15   11.2   236    13.8    0.00 
 126   23:05   0.00   76.1    15   11.9   234    14.4    0.00 
 126   23:10   0.00   74.6    15    9.1   230    11.6    0.00 
 126   23:15   0.00   72.8    16    7.7   224     9.3    0.00 
 126   23:20   0.00   71.8    16    7.5   223     8.2    0.00 
 126   23:25   0.00   71.3    17    6.5   218     7.7    0.00 
 126   23:30   0.00   70.9    17    6.7   217     7.7    0.00 
 126   23:35   0.00   70.7    17    6.9   216     7.7    0.00 
 126   23:40   0.00   70.3    17    7.5   218     8.2    0.00 
 126   23:45   0.00   71.0    17    7.2   229     8.8    0.00 
 126   23:50   0.00   70.5    17    6.3   213     7.1    0.00 
 126   23:55   0.00   70.1    18    6.6   209     7.7    0.00 
 127    0:00   0.00   70.6    19    6.8   220     7.7    0.00 
 127    0:05   0.00   71.1    19    6.9   219     8.2    0.00 
 127    0:10   0.00   70.7    20    6.7   222     7.7    0.00 
 127    0:15   0.00   71.9    22    8.2   238    11.0    0.00 
 127    0:20   0.00   72.8    22    7.7   236    10.5    0.00 
 127    0:25   0.00   71.8    22    6.6   234     8.2    0.00 
 127    0:30   0.00   71.7    22    5.9   234     7.1    0.00 
 127    0:35   0.00   72.4    24    6.6   238     8.2    0.00 
 127    0:40   0.00   71.7    23    5.2   226     6.5    0.00 
 127    0:45   0.00   70.8    23    4.1   210     4.9    0.00 
 127    0:50   0.00   69.9    23    3.9   191     4.9    0.00 
 127    0:55   0.00   70.1    24    4.8   198     5.4    0.00 
 127    1:00   0.00   70.3    24    5.1   190     6.0    0.00 
 127    1:05   0.00   69.8    25    5.5   191     6.5    0.00 
 127    1:10   0.00   69.9    25    5.6   198     7.1    0.00 
 127    1:15   0.00   70.4    26    6.1   199     7.1    0.00 
 127    1:20   0.00   70.2    26    6.1   198     7.1    0.00 
 127    1:25   0.00   70.4    26    6.2   201     7.1    0.00 
 127    1:30   0.00   69.8    27    6.4   198     7.7    0.00 

Return to Spot Road graphs page.


Western Regional Climate Center,wrcc@dri.edu